»·PEaware :: N47332B L88-KSBP

N47332B :: L88-KSBP

FLIGHT INFORMATION

Flight Status: Arrived
Operator: Privately registered:
United States
More flights under this callsign
Pilot: Doug M. (17614)
Aircraft: CESSNA 172 SKYHAWK
(C172)
More flights by this aircraft type
Origin: L88 New Cuyama
United States
Destination: KSBP San Luis Co Regl
United States
More flights between these airports :: More routes between these airports
Route:
File this flight plan on PilotEdge
Remarks: CAT2
Altitude:
(Current/Filed)
6,500ft
Speed:
(Current/Filed)
115kts
Departed: 29-Dec-17 08:37 PM
Arrived: 29-Dec-17 10:42 PM
Distance/Time
Traveled:
50nm/2:05
Distance/Time
To Go:
Arrived

Flight Plot

Page will automatically refresh every two minutes.


Map Options




Map Legend


Flown Route
Filed Route
Departure Airport
Arrival Airport
Navaid (VOR, NDB)
Fix

Horizontal Profiles

Position Reports

Time Latitude Longitude Heading Altitude Ground
Speed
29-Dec-17 20:01 35.237915 -120.638650 270 214ft 0kts
29-Dec-17 20:02 35.237915 -120.638650 270 214ft 0kts
29-Dec-17 20:03 35.237915 -120.638649 270 215ft 0kts
29-Dec-17 20:04 35.237915 -120.638649 270 215ft 0kts
29-Dec-17 20:05 35.237915 -120.638649 270 215ft 0kts
29-Dec-17 20:06 35.237915 -120.638649 270 215ft 0kts
29-Dec-17 20:07 35.237915 -120.638649 270 215ft 0kts
29-Dec-17 20:08 35.237915 -120.638649 270 215ft 0kts
29-Dec-17 20:09 35.237915 -120.638649 270 215ft 0kts
29-Dec-17 20:10 35.237915 -120.638649 270 215ft 0kts
29-Dec-17 20:11 35.237915 -120.638649 270 215ft 0kts
29-Dec-17 20:16 34.943922 -119.690797 202 2206ft 0kts
29-Dec-17 20:17 34.943922 -119.690797 202 2206ft 0kts
29-Dec-17 20:18 34.943922 -119.690797 202 2206ft 0kts
29-Dec-17 20:19 34.943922 -119.690797 202 2206ft 0kts
29-Dec-17 20:20 34.943922 -119.690797 202 2206ft 0kts
29-Dec-17 20:21 34.943922 -119.690797 202 2206ft 0kts
29-Dec-17 20:22 34.943922 -119.690797 202 2206ft 0kts
29-Dec-17 20:23 34.943922 -119.690797 202 2206ft 0kts
29-Dec-17 20:24 34.943922 -119.690797 202 2206ft 0kts
29-Dec-17 20:25 34.943922 -119.690797 202 2206ft 0kts
29-Dec-17 20:26 34.943922 -119.690797 202 2206ft 0kts
29-Dec-17 20:27 34.943922 -119.690797 202 2206ft 0kts
29-Dec-17 20:28 34.943922 -119.690797 202 2206ft 0kts
29-Dec-17 20:29 34.943770 -119.690859 194 2206ft 1kts
29-Dec-17 20:30 34.943683 -119.690886 192 2206ft 0kts
29-Dec-17 20:31 34.943683 -119.690886 192 2206ft 0kts
29-Dec-17 20:32 34.943683 -119.690886 192 2206ft 0kts
29-Dec-17 20:33 34.943683 -119.690886 192 2206ft 0kts
29-Dec-17 20:34 34.943683 -119.690886 192 2206ft 0kts
29-Dec-17 20:35 34.943683 -119.690886 192 2206ft 0kts
29-Dec-17 20:36 34.943673 -119.690889 192 2206ft 0kts
29-Dec-17 20:37 34.943479 -119.690923 184 2206ft 3kts
29-Dec-17 20:38 34.943190 -119.690962 188 2206ft 0kts
29-Dec-17 20:39 34.943142 -119.690971 184 2206ft 0kts
29-Dec-17 20:40 34.942863 -119.691122 207 2206ft 0kts
29-Dec-17 20:41 34.940601 -119.687205 117 2206ft 33kts
29-Dec-17 20:42 34.937777 -119.680249 277 2206ft 0kts
29-Dec-17 20:43 34.946841 -119.699429 304 2690ft 85kts
29-Dec-17 20:44 34.957972 -119.724132 303 3546ft 86kts
29-Dec-17 20:45 34.970055 -119.748760 300 4363ft 86kts
29-Dec-17 20:46 34.983598 -119.774916 301 5020ft 95kts
29-Dec-17 20:47 34.997622 -119.801079 302 5696ft 95kts
29-Dec-17 20:48 35.011883 -119.827310 303 6381ft 93kts
29-Dec-17 20:49 35.037383 -119.840240 338 6534ft 125kts
29-Dec-17 20:50 35.068256 -119.854351 338 6525ft 120kts
29-Dec-17 20:51 35.097529 -119.867582 339 6524ft 113kts
29-Dec-17 20:52 35.122059 -119.886029 285 6525ft 109kts
29-Dec-17 20:53 35.128691 -119.922331 278 6522ft 111kts
29-Dec-17 20:54 35.134348 -119.959861 278 6522ft 113kts
29-Dec-17 20:55 35.140048 -119.997644 278 6521ft 113kts
29-Dec-17 20:56 35.145728 -120.035310 277 6520ft 112kts
29-Dec-17 20:57 35.151386 -120.072744 277 6519ft 112kts
29-Dec-17 20:58 35.156940 -120.109638 277 6518ft 111kts
29-Dec-17 20:59 35.162470 -120.146881 277 6518ft 111kts
29-Dec-17 21:00 35.168016 -120.183892 277 6517ft 110kts
29-Dec-17 21:01 35.173429 -120.220441 277 6517ft 110kts
29-Dec-17 21:02 35.178937 -120.257143 277 6515ft 108kts
29-Dec-17 21:03 35.186138 -120.291639 317 6513ft 107kts
29-Dec-17 21:04 35.204794 -120.276635 102 6518ft 102kts
29-Dec-17 21:05 35.200200 -120.242480 102 6516ft 101kts
29-Dec-17 21:06 35.181571 -120.236510 243 6518ft 95kts
29-Dec-17 21:07 35.190320 -120.267454 292 6516ft 99kts
29-Dec-17 21:08 35.210891 -120.281708 33 6514ft 105kts
29-Dec-17 21:09 35.212539 -120.249141 102 6516ft 101kts
29-Dec-17 21:10 35.207885 -120.215241 111 6514ft 101kts
29-Dec-17 21:11 35.184616 -120.213469 224 6518ft 97kts
29-Dec-17 21:12 35.191627 -120.244813 321 6516ft 108kts
29-Dec-17 21:13 35.220415 -120.241309 13 6523ft 111kts
29-Dec-17 21:14 35.226009 -120.212746 101 6525ft 104kts
29-Dec-17 21:15 35.209933 -120.193047 192 6528ft 102kts
29-Dec-17 21:16 35.183241 -120.200982 198 6524ft 103kts
29-Dec-17 21:17 35.180936 -120.233779 275 6527ft 108kts
29-Dec-17 21:18 35.185989 -120.270125 301 6523ft 111kts
29-Dec-17 21:19 35.206586 -120.260679 102 6528ft 103kts
29-Dec-17 21:20 35.200646 -120.226167 131 6524ft 103kts
29-Dec-17 21:21 35.183988 -120.239599 280 6530ft 108kts
29-Dec-17 21:22 35.191179 -120.275292 281 6525ft 109kts
29-Dec-17 21:23 35.197459 -120.311959 277 6524ft 110kts
29-Dec-17 21:24 35.208988 -120.343129 356 6527ft 110kts
29-Dec-17 21:25 35.220685 -120.318360 102 6524ft 103kts
29-Dec-17 21:26 35.215300 -120.283718 102 6524ft 104kts
29-Dec-17 21:27 35.200838 -120.260934 201 6526ft 102kts
29-Dec-17 21:28 35.199531 -120.293526 282 6525ft 110kts
29-Dec-17 21:29 35.219774 -120.305093 60 6525ft 106kts
29-Dec-17 21:30 35.206553 -120.286104 213 6525ft 104kts
29-Dec-17 21:31 35.205407 -120.320806 272 6524ft 109kts
29-Dec-17 21:32 35.207512 -120.358042 267 6522ft 110kts
29-Dec-17 21:33 35.206896 -120.395934 267 6521ft 113kts
29-Dec-17 21:34 35.204999 -120.433828 267 6519ft 110kts
29-Dec-17 21:35 35.204393 -120.470499 298 6516ft 108kts
29-Dec-17 21:36 35.222718 -120.459733 102 6521ft 113kts
29-Dec-17 21:37 35.215622 -120.422521 102 6519ft 114kts
29-Dec-17 21:38 35.203074 -120.390105 170 6521ft 112kts
29-Dec-17 21:39 35.191703 -120.417034 282 6525ft 112kts
29-Dec-17 21:40 35.198015 -120.452008 302 6512ft 101kts
29-Dec-17 21:41 35.214298 -120.440716 104 6522ft 102kts
29-Dec-17 21:42 35.201759 -120.413364 178 6520ft 101kts
29-Dec-17 21:43 35.192376 -120.425907 280 6523ft 94kts
29-Dec-17 22:04 34.943922 -119.690797 202 2206ft 0kts
29-Dec-17 22:05 34.943922 -119.690797 202 2206ft 0kts
29-Dec-17 22:06 34.943922 -119.690797 202 2206ft 0kts
29-Dec-17 22:07 34.943922 -119.690797 202 2206ft 0kts
29-Dec-17 22:08 34.943922 -119.690797 202 2206ft 0kts
29-Dec-17 22:09 34.943922 -119.690797 202 2206ft 0kts
29-Dec-17 22:10 34.943903 -119.690807 202 2206ft 0kts
29-Dec-17 22:11 34.942487 -119.691149 159 2206ft 11kts
29-Dec-17 22:12 34.938750 -119.682708 114 2206ft 32kts
29-Dec-17 22:13 34.939344 -119.684034 297 2206ft 70kts
29-Dec-17 22:14 34.949409 -119.705616 306 2967ft 81kts
29-Dec-17 22:15 34.959155 -119.731315 281 3747ft 92kts
29-Dec-17 22:16 34.969919 -119.759051 298 4559ft 91kts
29-Dec-17 22:17 34.983882 -119.784823 306 5313ft 93kts
29-Dec-17 22:18 35.000136 -119.808104 337 5937ft 99kts
29-Dec-17 22:19 35.023820 -119.821601 334 6545ft 107kts
29-Dec-17 22:20 35.052288 -119.841984 310 6527ft 135kts
29-Dec-17 22:21 35.066508 -119.883008 302 6521ft 136kts
29-Dec-17 22:22 35.086047 -119.920581 302 6518ft 127kts
29-Dec-17 22:23 35.101931 -119.952922 283 6509ft 101kts
29-Dec-17 22:24 35.105477 -119.989056 276 6520ft 120kts
29-Dec-17 22:25 35.113365 -120.029117 287 6517ft 124kts
29-Dec-17 22:26 35.123341 -120.069332 287 6515ft 125kts
29-Dec-17 22:27 35.133485 -120.109792 287 6514ft 125kts
29-Dec-17 22:28 35.141831 -120.149993 283 6513ft 126kts
29-Dec-17 22:29 35.149732 -120.191323 283 6512ft 126kts
29-Dec-17 22:30 35.157594 -120.232215 283 6512ft 126kts
29-Dec-17 22:31 35.164172 -120.266334 283 6511ft 124kts
29-Dec-17 22:32 35.173296 -120.313919 283 6512ft 124kts
29-Dec-17 22:33 35.181108 -120.354647 283 6512ft 124kts
29-Dec-17 22:34 35.187456 -120.387895 283 6510ft 118kts
29-Dec-17 22:35 35.195751 -120.431487 283 6511ft 110kts
29-Dec-17 22:36 35.211999 -120.455360 12 6515ft 110kts
29-Dec-17 22:37 35.228391 -120.432281 103 6514ft 113kts
29-Dec-17 22:38 35.214269 -120.402385 182 6510ft 112kts
29-Dec-17 22:39 35.190091 -120.415490 258 5993ft 121kts
29-Dec-17 22:48 35.237915 -120.638650 270 214ft 0kts
29-Dec-17 22:49 35.237915 -120.638650 270 214ft 0kts
29-Dec-17 22:50 35.237915 -120.638650 270 214ft 0kts
29-Dec-17 22:51 35.237915 -120.638650 270 214ft 0kts
29-Dec-17 22:52 35.237915 -120.638650 270 214ft 0kts
29-Dec-17 22:53 35.237915 -120.638650 270 214ft 0kts
29-Dec-17 22:54 35.237915 -120.638650 270 214ft 0kts
29-Dec-17 22:55 35.237915 -120.638650 270 214ft 0kts
29-Dec-17 22:56 35.237915 -120.638650 270 214ft 0kts
29-Dec-17 22:57 35.237915 -120.638650 270 214ft 0kts
29-Dec-17 22:58 35.237915 -120.638650 270 214ft 0kts
29-Dec-17 22:59 35.237915 -120.638650 270 214ft 0kts
29-Dec-17 23:00 35.237915 -120.638650 270 214ft 0kts
29-Dec-17 23:01 35.237915 -120.638650 270 214ft 0kts
29-Dec-17 23:02 35.237915 -120.638650 270 214ft 0kts
29-Dec-17 23:03 35.237915 -120.638650 270 214ft 0kts

Navigation Log

Ident Type
1. L88 Airport
2. KSBP Airport